createdAt,value
2018-08-10T00:00:45.074Z,18.95
2018-08-10T00:03:14.249Z,18.88
2018-08-10T00:05:43.139Z,18.70
2018-08-10T00:08:12.101Z,18.65
2018-08-10T00:10:40.833Z,18.57
2018-08-10T00:13:09.820Z,18.50
2018-08-10T00:15:38.388Z,18.47
2018-08-10T00:18:06.898Z,18.41
2018-08-10T00:20:35.998Z,18.35
2018-08-10T00:23:04.458Z,18.25
2018-08-10T00:25:33.391Z,18.32
2018-08-10T00:28:03.193Z,18.28
2018-08-10T00:30:31.760Z,18.22
2018-08-10T00:33:00.407Z,18.23
2018-08-10T00:35:28.928Z,18.16
2018-08-10T00:37:58.288Z,18.11
2018-08-10T00:40:27.638Z,18.10
2018-08-10T00:42:57.209Z,18.38
2018-08-10T00:45:25.807Z,18.41
2018-08-10T00:47:54.913Z,18.27
2018-08-10T00:50:23.439Z,18.22
2018-08-10T00:52:52.574Z,18.23
2018-08-10T00:55:21.082Z,18.01
2018-08-10T00:57:50.196Z,18.12
2018-08-10T01:00:21.730Z,18.17
2018-08-10T01:02:53.067Z,17.93
2018-08-10T01:05:22.072Z,17.92
2018-08-10T01:07:50.528Z,17.89
2018-08-10T01:10:21.361Z,17.88
2018-08-10T01:12:49.874Z,17.80
2018-08-10T01:15:18.860Z,17.92
2018-08-10T01:17:47.896Z,17.91
2018-08-10T01:20:20.852Z,17.93
2018-08-10T01:22:54.506Z,17.84
2018-08-10T01:25:24.345Z,17.76
2018-08-10T01:28:01.846Z,17.77
2018-08-10T01:30:32.551Z,17.59
2018-08-10T01:33:01.215Z,17.72
2018-08-10T01:35:30.333Z,17.51
2018-08-10T01:38:00.457Z,17.40
2018-08-10T01:40:29.831Z,17.50
2018-08-10T01:42:58.627Z,17.51
2018-08-10T01:45:27.909Z,17.33
2018-08-10T01:47:56.531Z,17.18
2018-08-10T01:50:25.018Z,17.02
2018-08-10T01:52:53.865Z,17.01
2018-08-10T01:55:22.622Z,17.08
2018-08-10T01:57:51.111Z,16.93
2018-08-10T02:00:19.629Z,16.97
2018-08-10T02:02:48.477Z,16.86
2018-08-10T02:05:17.827Z,16.82
2018-08-10T02:07:46.536Z,16.80
2018-08-10T02:10:19.188Z,16.72
2018-08-10T02:12:57.519Z,16.76
2018-08-10T02:15:27.432Z,16.75
2018-08-10T02:17:56.228Z,16.80
2018-08-10T02:20:25.645Z,16.81
2018-08-10T02:22:54.638Z,16.76
2018-08-10T02:25:23.943Z,16.74
2018-08-10T02:27:52.884Z,16.82
2018-08-10T02:30:22.213Z,16.74
2018-08-10T02:32:52.541Z,16.62
2018-08-10T02:35:21.085Z,16.67
2018-08-10T02:37:50.377Z,16.76
2018-08-10T02:40:20.657Z,16.70
2018-08-10T02:42:50.109Z,16.62
2018-08-10T02:45:18.915Z,16.64
2018-08-10T02:47:48.130Z,16.51
2018-08-10T02:50:16.684Z,16.47
2018-08-10T02:52:45.413Z,16.43
2018-08-10T02:55:14.300Z,16.39
2018-08-10T02:57:43.523Z,16.36
2018-08-10T03:00:16.562Z,16.28
2018-08-10T03:02:45.468Z,16.22
2018-08-10T03:05:14.293Z,16.24
2018-08-10T03:07:42.986Z,16.19
2018-08-10T03:10:12.419Z,16.10
2018-08-10T03:12:40.976Z,16.08
2018-08-10T03:15:11.865Z,16.10
2018-08-10T03:17:40.885Z,16.13
2018-08-10T03:20:10.017Z,16.02
2018-08-10T03:22:38.669Z,15.99
2018-08-10T03:25:08.612Z,16.04
2018-08-10T03:27:37.153Z,16.01
2018-08-10T03:30:07.453Z,15.98
2018-08-10T03:32:36.038Z,15.91
2018-08-10T03:35:04.669Z,15.92
2018-08-10T03:37:34.076Z,15.92
2018-08-10T03:40:02.528Z,15.82
2018-08-10T03:42:31.988Z,15.68
2018-08-10T03:45:00.777Z,15.73
2018-08-10T03:47:30.101Z,15.70
2018-08-10T03:49:59.824Z,15.68
2018-08-10T03:52:29.204Z,15.62
2018-08-10T03:54:58.134Z,15.60
2018-08-10T03:57:28.125Z,15.46
2018-08-10T03:59:56.620Z,15.48
2018-08-10T04:02:25.143Z,15.40
2018-08-10T04:04:54.417Z,15.39
2018-08-10T04:07:23.753Z,15.32
2018-08-10T04:09:52.784Z,15.40
2018-08-10T04:12:22.909Z,15.37
2018-08-10T04:14:52.226Z,15.36
2018-08-10T04:17:24.533Z,15.37
2018-08-10T04:19:54.222Z,15.36
2018-08-10T04:22:23.814Z,15.33
2018-08-10T04:24:52.898Z,15.28
2018-08-10T04:27:21.464Z,15.26
2018-08-10T04:29:50.280Z,15.21
2018-08-10T04:32:20.406Z,15.27
2018-08-10T04:34:48.925Z,15.22
2018-08-10T04:37:17.625Z,15.18
2018-08-10T04:39:47.279Z,15.21
2018-08-10T04:42:15.873Z,15.08
2018-08-10T04:44:44.875Z,15.12
2018-08-10T04:47:13.417Z,15.19
2018-08-10T04:49:42.873Z,15.28
2018-08-10T04:52:11.648Z,15.22
2018-08-10T04:54:40.114Z,15.31
2018-08-10T04:57:10.366Z,15.04
2018-08-10T04:59:39.844Z,15.26
2018-08-10T05:02:08.922Z,15.28
2018-08-10T05:04:37.425Z,15.05
2018-08-10T05:07:05.942Z,15.28
2018-08-10T05:09:34.856Z,15.25
2018-08-10T05:12:03.656Z,15.13
2018-08-10T05:14:32.147Z,15.08
2018-08-10T05:17:01.570Z,15.12
2018-08-10T05:19:30.865Z,15.13
2018-08-10T05:21:59.588Z,15.12
2018-08-10T05:24:28.332Z,14.93
2018-08-10T05:26:57.180Z,14.94
2018-08-10T05:29:25.991Z,14.88
2018-08-10T05:31:54.904Z,14.91
2018-08-10T05:34:23.417Z,15.10
2018-08-10T05:36:52.854Z,15.20
2018-08-10T05:39:21.320Z,15.31
2018-08-10T05:41:50.637Z,15.27
2018-08-10T05:44:19.336Z,15.20
2018-08-10T05:46:48.122Z,15.32
2018-08-10T05:49:18.775Z,15.33
2018-08-10T05:51:47.319Z,15.22
2018-08-10T05:54:15.769Z,15.40
2018-08-10T05:56:44.589Z,15.58
2018-08-10T05:59:13.053Z,15.61
2018-08-10T06:01:41.522Z,15.80
2018-08-10T06:04:11.557Z,15.85
2018-08-10T06:06:40.876Z,15.96
2018-08-10T06:09:15.204Z,16.01
2018-08-10T06:11:44.755Z,15.78
2018-08-10T06:14:14.516Z,16.04
2018-08-10T06:16:43.301Z,15.81
2018-08-10T06:19:11.996Z,15.92
2018-08-10T06:21:40.808Z,16.03
2018-08-10T06:24:09.977Z,16.00
2018-08-10T06:26:38.495Z,15.95
2018-08-10T06:29:06.998Z,16.19
2018-08-10T06:31:35.482Z,16.29
2018-08-10T06:34:04.306Z,16.50
2018-08-10T06:36:33.621Z,16.39
2018-08-10T06:39:02.697Z,16.32
2018-08-10T06:41:31.186Z,16.34
2018-08-10T06:44:00.818Z,16.21
2018-08-10T06:46:29.776Z,16.10
2018-08-10T06:48:58.294Z,16.07
2018-08-10T06:51:27.201Z,16.27
2018-08-10T06:53:55.657Z,16.22
2018-08-10T06:56:25.079Z,16.34
2018-08-10T06:58:54.197Z,16.56
2018-08-10T07:01:22.978Z,16.43
2018-08-10T07:03:51.836Z,16.44
2018-08-10T07:06:21.054Z,16.34
2018-08-10T07:08:49.865Z,16.48
2018-08-10T07:11:18.321Z,16.68
2018-08-10T07:13:47.607Z,16.85
2018-08-10T07:16:16.064Z,16.72
2018-08-10T07:18:44.758Z,16.76
2018-08-10T07:21:13.480Z,16.76
2018-08-10T07:23:42.338Z,17.01
2018-08-10T07:26:11.084Z,16.93
2018-08-10T07:28:39.541Z,16.90
2018-08-10T07:31:08.581Z,17.34
2018-08-10T07:33:37.655Z,16.92
2018-08-10T07:36:07.384Z,17.17
2018-08-10T07:38:35.893Z,16.88
2018-08-10T07:41:04.351Z,17.16
2018-08-10T07:43:33.470Z,17.40
2018-08-10T07:46:02.453Z,17.44
2018-08-10T07:48:35.808Z,16.99
2018-08-10T07:51:04.279Z,16.98
2018-08-10T07:53:33.076Z,17.18
2018-08-10T07:56:01.835Z,17.22
2018-08-10T07:58:31.203Z,17.32
2018-08-10T08:00:59.811Z,17.43
2018-08-10T08:03:28.368Z,17.64
2018-08-10T08:05:57.214Z,17.79
2018-08-10T08:08:27.046Z,17.35
2018-08-10T08:10:55.494Z,17.91
2018-08-10T08:13:24.557Z,17.85
2018-08-10T08:15:56.447Z,17.84
2018-08-10T08:18:24.964Z,18.07
2018-08-10T08:21:05.313Z,18.14
2018-08-10T08:23:33.883Z,18.51
2018-08-10T08:26:04.199Z,17.89
2018-08-10T08:28:33.174Z,17.91
2018-08-10T08:31:02.617Z,18.15
2018-08-10T08:33:31.242Z,18.02
2018-08-10T08:36:02.902Z,17.92
2018-08-10T08:38:42.848Z,18.06
2018-08-10T08:41:11.628Z,18.18
2018-08-10T08:46:00.036Z,18.71
2018-08-10T08:48:29.807Z,19.06
2018-08-10T08:51:01.681Z,19.12
2018-08-10T08:53:30.239Z,19.28
2018-08-10T08:56:02.820Z,19.41
2018-08-10T08:58:31.826Z,19.12
2018-08-10T09:01:01.295Z,18.67
2018-08-10T09:03:40.972Z,18.72
2018-08-10T09:06:09.769Z,19.20
2018-08-10T09:08:38.474Z,19.33
2018-08-10T09:11:08.262Z,19.22
2018-08-10T09:14:50.362Z,19.54
2018-08-10T09:17:19.072Z,19.33
2018-08-10T09:20:50.254Z,19.40
2018-08-10T09:23:19.148Z,19.70
2018-08-10T09:25:47.989Z,19.95
2018-08-10T09:28:16.443Z,20.08
2018-08-10T09:30:45.251Z,20.32
2018-08-10T09:33:13.761Z,20.33
2018-08-10T09:35:42.629Z,20.10
2018-08-10T09:38:11.518Z,20.31
2018-08-10T09:40:40.997Z,20.20
2018-08-10T09:43:10.660Z,20.15
2018-08-10T09:45:39.743Z,20.32
2018-08-10T09:48:08.239Z,20.71
2018-08-10T09:50:36.763Z,21.09
2018-08-10T09:53:05.801Z,21.18
2018-08-10T09:55:36.029Z,21.74
2018-08-10T09:58:06.736Z,21.59
2018-08-10T10:00:40.638Z,21.34
2018-08-10T10:03:15.074Z,21.22
2018-08-10T10:05:44.566Z,21.71
2018-08-10T10:08:13.353Z,21.38
2018-08-10T10:10:41.864Z,21.75
2018-08-10T10:13:11.138Z,21.51
2018-08-10T10:15:39.778Z,21.09
2018-08-10T10:18:11.976Z,21.51
2018-08-10T10:20:40.839Z,21.88
2018-08-10T10:23:09.833Z,22.48
2018-08-10T10:25:40.046Z,22.59
2018-08-10T10:28:09.186Z,22.53
2018-08-10T10:30:38.033Z,22.70
2018-08-10T10:33:06.849Z,21.95
2018-08-10T10:35:35.389Z,22.34
2018-08-10T10:38:04.207Z,21.59
2018-08-10T10:40:33.118Z,22.34
2018-08-10T10:43:02.344Z,22.66
2018-08-10T10:45:30.818Z,22.83
2018-08-10T10:47:59.330Z,23.34
2018-08-10T10:50:27.824Z,22.95
2018-08-10T10:52:56.307Z,22.89
2018-08-10T10:55:24.960Z,23.31
2018-08-10T10:57:53.391Z,22.90
2018-08-10T11:00:22.131Z,22.70
2018-08-10T11:02:51.297Z,22.35
2018-08-10T11:05:20.092Z,22.16
2018-08-10T11:07:48.574Z,22.29
2018-08-10T11:10:18.521Z,22.15
2018-08-10T11:12:47.294Z,23.17
2018-08-10T11:15:16.617Z,23.31
2018-08-10T11:17:45.397Z,23.01
2018-08-10T11:20:14.387Z,23.31
2018-08-10T11:22:43.131Z,23.09
2018-08-10T11:25:13.598Z,22.46
2018-08-10T11:27:43.401Z,22.30
2018-08-10T11:30:12.783Z,21.91
2018-08-10T11:32:41.516Z,22.91
2018-08-10T11:35:10.292Z,22.26
2018-08-10T11:37:39.159Z,22.76
2018-08-10T11:40:12.544Z,22.45
2018-08-10T11:42:41.337Z,22.09
2018-08-10T11:45:12.954Z,22.76
2018-08-10T11:47:41.679Z,22.22
2018-08-10T11:50:10.347Z,22.46
2018-08-10T11:52:39.254Z,22.49
2018-08-10T11:55:09.602Z,22.53
2018-08-10T11:57:38.088Z,23.18
2018-08-10T12:00:07.752Z,23.51
2018-08-10T12:02:36.265Z,23.02
2018-08-10T12:05:06.265Z,23.51
2018-08-10T12:07:34.787Z,23.03
2018-08-10T12:10:03.299Z,22.40
2018-08-10T12:12:33.073Z,23.46
2018-08-10T12:15:03.058Z,23.47
2018-08-10T12:17:32.799Z,23.07
2018-08-10T12:20:01.613Z,23.17
2018-08-10T12:22:30.434Z,22.23
2018-08-10T12:24:59.372Z,22.95
2018-08-10T12:27:27.866Z,22.43
2018-08-10T12:29:56.763Z,23.12
2018-08-10T12:32:25.532Z,23.06
2018-08-10T12:34:54.567Z,23.02
2018-08-10T12:37:23.020Z,22.66
2018-08-10T12:39:51.526Z,23.04
2018-08-10T12:42:20.544Z,22.32
2018-08-10T12:44:48.997Z,22.49
2018-08-10T12:47:17.486Z,23.40
2018-08-10T12:49:47.069Z,23.07
2018-08-10T12:52:15.529Z,23.37
2018-08-10T12:54:46.258Z,23.63
2018-08-10T12:57:17.473Z,23.34
2018-08-10T12:59:47.557Z,22.60
2018-08-10T13:02:16.037Z,22.56
2018-08-10T13:04:44.564Z,22.83
2018-08-10T13:07:13.404Z,22.43
2018-08-10T13:09:42.174Z,22.77
2018-08-10T13:12:11.668Z,22.70
2018-08-10T13:14:40.177Z,22.30
2018-08-10T13:17:08.709Z,22.63
2018-08-10T13:19:37.172Z,22.75
2018-08-10T13:22:06.075Z,22.85
2018-08-10T13:24:36.058Z,22.50
2018-08-10T13:27:05.036Z,22.38
2018-08-10T13:29:34.017Z,22.56
2018-08-10T13:32:03.170Z,22.83
2018-08-10T13:34:31.691Z,23.30
2018-08-10T13:37:00.762Z,22.51
2018-08-10T13:39:29.236Z,23.07
2018-08-10T13:41:57.701Z,23.21
2018-08-10T13:44:26.952Z,23.48
2018-08-10T13:46:56.631Z,23.38
2018-08-10T13:49:25.093Z,23.76
2018-08-10T13:51:54.360Z,24.43
2018-08-10T13:54:23.132Z,23.45
2018-08-10T13:56:52.066Z,22.45
2018-08-10T13:59:20.776Z,22.78
2018-08-10T14:01:49.669Z,23.74
2018-08-10T14:04:18.257Z,23.50
2018-08-10T14:06:46.776Z,22.77
2018-08-10T14:09:15.265Z,22.96
2018-08-10T14:11:44.649Z,23.37
2018-08-10T14:14:14.116Z,23.49
2018-08-10T14:16:42.836Z,24.47
2018-08-10T14:19:12.789Z,23.57
2018-08-10T14:21:41.314Z,24.25
2018-08-10T14:24:09.845Z,24.44
2018-08-10T14:26:38.708Z,23.56
2018-08-10T14:29:08.028Z,23.02
2018-08-10T14:31:37.429Z,23.45
2018-08-10T14:34:06.452Z,23.51
2018-08-10T14:36:35.490Z,23.33
2018-08-10T14:39:05.771Z,22.66
2018-08-10T14:41:34.745Z,22.93
2018-08-10T14:44:04.517Z,23.25
2018-08-10T14:46:35.676Z,22.76
2018-08-10T14:49:04.638Z,23.08
2018-08-10T14:51:33.152Z,23.16
2018-08-10T14:54:01.668Z,23.54
2018-08-10T14:56:30.196Z,24.22
2018-08-10T14:58:58.974Z,25.38
2018-08-10T15:01:27.487Z,25.96
2018-08-10T15:03:56.329Z,25.16
2018-08-10T15:06:25.176Z,24.52
2018-08-10T15:08:54.956Z,23.70
2018-08-10T15:11:24.694Z,24.49
2018-08-10T15:13:53.468Z,25.38
2018-08-10T15:16:22.301Z,25.31
2018-08-10T15:18:50.818Z,25.74
2018-08-10T15:21:19.706Z,25.97
2018-08-10T15:23:48.587Z,25.90
2018-08-10T15:26:17.768Z,25.80
2018-08-10T15:28:46.532Z,25.79
2018-08-10T15:31:16.237Z,24.53
2018-08-10T15:33:45.008Z,24.82
2018-08-10T15:36:14.091Z,24.10
2018-08-10T15:38:43.782Z,25.20
2018-08-10T15:41:12.846Z,24.44
2018-08-10T15:43:41.432Z,24.64
2018-08-10T15:46:11.684Z,24.94
2018-08-10T15:48:40.621Z,25.67
2018-08-10T15:51:10.080Z,25.42
2018-08-10T15:53:39.525Z,24.68
2018-08-10T15:56:08.078Z,24.46
2018-08-10T15:58:36.561Z,24.25
2018-08-10T16:01:05.084Z,24.44
2018-08-10T16:03:33.650Z,24.21
2018-08-10T16:06:02.495Z,24.51
2018-08-10T16:08:31.054Z,24.06
2018-08-10T16:10:59.881Z,24.13
2018-08-10T16:13:28.831Z,24.68
2018-08-10T16:15:57.854Z,24.67
2018-08-10T16:18:26.762Z,24.68
2018-08-10T16:20:55.297Z,25.18
2018-08-10T16:23:24.859Z,25.58
2018-08-10T16:25:53.654Z,24.82
2018-08-10T16:28:22.172Z,24.16
2018-08-10T16:30:51.982Z,25.35
2018-08-10T16:33:20.854Z,24.90
2018-08-10T16:35:50.537Z,25.32
2018-08-10T16:38:19.357Z,24.94
2018-08-10T16:40:48.524Z,25.29
2018-08-10T16:43:17.047Z,25.45
2018-08-10T16:45:45.555Z,24.41
2018-08-10T16:48:14.683Z,24.55
2018-08-10T16:50:43.870Z,24.12
2018-08-10T16:53:12.638Z,24.10
2018-08-10T16:55:41.122Z,23.59
2018-08-10T16:58:09.680Z,23.67
2018-08-10T17:00:38.140Z,24.14
2018-08-10T17:03:06.878Z,24.42
2018-08-10T17:05:36.472Z,24.46
2018-08-10T17:08:05.372Z,24.19
2018-08-10T17:10:33.876Z,24.20
2018-08-10T17:13:02.797Z,23.76
2018-08-10T17:15:31.316Z,23.19
2018-08-10T17:18:00.066Z,23.24
2018-08-10T17:20:28.613Z,23.04
2018-08-10T17:22:57.152Z,23.19
2018-08-10T17:25:26.007Z,23.27
2018-08-10T17:27:58.937Z,23.10
2018-08-10T17:30:28.253Z,23.24
2018-08-10T17:32:57.128Z,23.09
2018-08-10T17:35:26.180Z,23.09
2018-08-10T17:37:55.590Z,23.20
2018-08-10T17:40:25.193Z,22.83
2018-08-10T17:42:54.584Z,23.19
2018-08-10T17:45:23.976Z,22.96
2018-08-10T17:47:52.788Z,22.67
2018-08-10T17:50:22.032Z,22.68
2018-08-10T17:52:54.653Z,22.31
2018-08-10T17:55:23.683Z,22.43
2018-08-10T17:57:52.222Z,22.16
2018-08-10T18:00:26.479Z,22.08
2018-08-10T18:02:55.795Z,22.38
2018-08-10T18:05:24.286Z,22.23
2018-08-10T18:12:00.236Z,22.46
2018-08-10T18:14:28.845Z,22.41
2018-08-10T18:16:57.383Z,22.43
2018-08-10T18:19:26.176Z,22.46
2018-08-10T18:21:54.999Z,22.33
2018-08-10T18:24:23.842Z,22.67
2018-08-10T18:26:52.395Z,22.67
2018-08-10T18:29:22.363Z,22.79
2018-08-10T18:31:51.160Z,22.59
2018-08-10T18:34:19.716Z,22.11
2018-08-10T18:36:48.954Z,21.88
2018-08-10T18:39:17.531Z,21.94
2018-08-10T18:41:47.393Z,22.17
2018-08-10T18:44:16.040Z,21.81
2018-08-10T18:46:45.641Z,21.70
2018-08-10T18:49:16.475Z,21.64
2018-08-10T18:51:45.517Z,21.69
2018-08-10T18:54:14.500Z,21.56
2018-08-10T18:56:43.387Z,21.53
2018-08-10T18:59:12.883Z,21.38
2018-08-10T19:01:41.381Z,21.14
2018-08-10T19:04:11.156Z,21.18
2018-08-10T19:06:39.710Z,21.03
2018-08-10T19:09:09.605Z,21.08
2018-08-10T19:11:38.694Z,21.00
2018-08-10T19:14:07.515Z,20.96
2018-08-10T19:16:37.107Z,20.83
2018-08-10T19:19:06.175Z,20.80
2018-08-10T19:21:35.136Z,20.76
2018-08-10T19:24:04.178Z,20.70
2018-08-10T19:26:34.248Z,20.67
2018-08-10T19:29:03.848Z,20.70
2018-08-10T19:31:34.055Z,20.69
2018-08-10T19:34:02.659Z,20.63
2018-08-10T19:36:31.577Z,20.59
2018-08-10T19:39:00.180Z,20.52
2018-08-10T19:41:28.968Z,20.53
2018-08-10T19:43:57.507Z,20.46
2018-08-10T19:46:26.097Z,20.50
2018-08-10T19:48:55.303Z,20.36
2018-08-10T19:51:24.604Z,20.46
2018-08-10T19:53:53.545Z,20.27
2018-08-10T19:56:22.563Z,20.22
2018-08-10T19:58:51.531Z,20.15
2018-08-10T20:01:20.169Z,20.01
2018-08-10T20:03:48.992Z,20.11
2018-08-10T20:06:18.402Z,20.07
2018-08-10T20:08:48.605Z,20.01
2018-08-10T20:11:18.050Z,20.03
2018-08-10T20:13:46.870Z,19.86
2018-08-10T20:16:15.451Z,19.76
2018-08-10T20:18:45.573Z,19.65
2018-08-10T20:21:14.299Z,19.58
2018-08-10T20:23:43.247Z,19.58
2018-08-10T20:26:12.120Z,19.44
2018-08-10T20:28:40.891Z,19.42
2018-08-10T20:31:10.069Z,19.35
2018-08-10T20:33:39.592Z,19.34
2018-08-10T20:36:08.166Z,19.35
2018-08-10T20:38:37.119Z,19.14
2018-08-10T20:41:05.726Z,19.18
2018-08-10T20:43:34.410Z,19.29
2018-08-10T20:46:03.689Z,19.27
2018-08-10T20:48:32.340Z,19.26
2018-08-10T20:51:01.167Z,19.24
2018-08-10T20:53:30.022Z,19.31
2018-08-10T20:55:58.871Z,19.31
2018-08-10T20:58:27.429Z,19.21
2018-08-10T21:00:56.018Z,18.95
2018-08-10T21:03:25.581Z,19.04
2018-08-10T21:05:54.377Z,18.85
2018-08-10T21:08:23.297Z,18.50
2018-08-10T21:10:53.277Z,18.59
2018-08-10T21:13:22.218Z,18.50
2018-08-10T21:15:51.796Z,18.37
2018-08-10T21:18:20.347Z,18.33
2018-08-10T21:20:50.198Z,18.53
2018-08-10T21:23:18.819Z,18.72
2018-08-10T21:25:47.753Z,18.74
2018-08-10T21:28:16.826Z,18.58
2018-08-10T21:30:45.870Z,18.45
2018-08-10T21:33:15.529Z,18.50
2018-08-10T21:35:44.573Z,18.30
2018-08-10T21:38:13.535Z,18.22
2018-08-10T21:40:42.241Z,18.03
2018-08-10T21:43:10.841Z,17.65
2018-08-10T21:45:39.450Z,17.67
2018-08-10T21:48:08.015Z,17.68
2018-08-10T21:50:37.770Z,17.53
2018-08-10T21:53:06.763Z,17.30
2018-08-10T21:55:36.113Z,17.23
2018-08-10T21:58:04.737Z,17.51
2018-08-10T22:00:49.899Z,17.50
2018-08-10T22:03:20.102Z,17.65
2018-08-10T22:05:49.096Z,17.87
2018-08-10T22:08:18.670Z,18.10
2018-08-10T22:10:47.352Z,18.22
2018-08-10T22:13:21.959Z,18.16
2018-08-10T22:15:55.991Z,18.25
2018-08-10T22:18:30.517Z,18.30
2018-08-10T22:20:59.441Z,18.27
2018-08-10T22:23:29.580Z,18.16
2018-08-10T22:25:59.083Z,18.09
2018-08-10T22:28:27.732Z,18.08
2018-08-10T22:30:56.633Z,18.13
2018-08-10T22:33:25.222Z,18.20
2018-08-10T22:35:54.700Z,17.95
2018-08-10T22:38:23.223Z,17.95
2018-08-10T22:40:52.019Z,18.16
2018-08-10T22:43:21.646Z,18.22
2018-08-10T22:45:50.474Z,18.23
2018-08-10T22:48:19.347Z,18.18
2018-08-10T22:50:48.428Z,18.06
2018-08-10T22:53:17.041Z,17.94
2018-08-10T22:55:45.919Z,17.83
2018-08-10T22:58:17.271Z,17.78
2018-08-10T23:00:47.703Z,17.83
2018-08-10T23:03:17.096Z,17.98
2018-08-10T23:05:45.800Z,18.15
2018-08-10T23:08:14.828Z,18.33
2018-08-10T23:10:43.434Z,18.63
2018-08-10T23:13:12.686Z,18.70
2018-08-10T23:15:41.642Z,19.00
2018-08-10T23:18:10.874Z,18.91
2018-08-10T23:20:40.289Z,18.79
2018-08-10T23:23:09.871Z,18.72
2018-08-10T23:25:39.322Z,18.81
2018-08-10T23:28:07.940Z,18.75
2018-08-10T23:30:36.744Z,18.28
2018-08-10T23:33:06.019Z,18.13
2018-08-10T23:35:35.545Z,17.87
2018-08-10T23:38:04.178Z,17.84
2018-08-10T23:40:32.734Z,17.57
2018-08-10T23:43:01.390Z,17.10
2018-08-10T23:45:30.195Z,17.17
2018-08-10T23:47:59.125Z,17.23
2018-08-10T23:50:28.017Z,17.34
2018-08-10T23:52:56.976Z,17.38
2018-08-10T23:55:25.994Z,17.54
2018-08-10T23:57:57.045Z,17.25
